createdAt,value
2023-12-28T00:01:16.390Z,77.93
2023-12-28T00:03:46.435Z,77.99
2023-12-28T00:06:16.047Z,77.84
2023-12-28T00:08:50.729Z,78.90
2023-12-28T00:11:17.740Z,79.58
2023-12-28T00:13:47.632Z,79.89
2023-12-28T00:16:17.349Z,79.49
2023-12-28T00:18:47.305Z,79.62
2023-12-28T00:21:17.292Z,80.55
2023-12-28T00:23:47.195Z,80.34
2023-12-28T00:26:18.544Z,79.31
2023-12-28T00:28:48.442Z,80.10
2023-12-28T00:31:18.133Z,80.84
2023-12-28T00:33:48.181Z,80.56
2023-12-28T00:36:18.170Z,81.05
2023-12-28T00:38:48.616Z,81.24
2023-12-28T00:41:18.469Z,81.11
2023-12-28T00:43:48.298Z,81.14
2023-12-28T00:46:18.089Z,81.63
2023-12-28T00:48:48.227Z,81.50
2023-12-28T00:51:18.209Z,82.55
2023-12-28T00:53:48.022Z,81.42
2023-12-28T00:56:19.088Z,82.25
2023-12-28T00:58:48.922Z,81.86
2023-12-28T01:01:18.942Z,81.86
2023-12-28T01:03:48.994Z,82.97
2023-12-28T01:06:18.695Z,83.41
2023-12-28T01:08:48.608Z,83.58
2023-12-28T01:11:19.411Z,84.41
2023-12-28T01:13:49.255Z,83.25
2023-12-28T01:16:19.084Z,83.66
2023-12-28T01:18:49.032Z,83.86
2023-12-28T01:21:19.063Z,84.26
2023-12-28T01:23:49.063Z,85.43
2023-12-28T01:26:19.319Z,85.83
2023-12-28T01:28:49.342Z,85.20
2023-12-28T01:31:19.246Z,85.60
2023-12-28T01:33:49.140Z,85.21
2023-12-28T01:36:22.953Z,85.43
2023-12-28T01:38:52.944Z,84.67
2023-12-28T01:41:22.851Z,85.34
2023-12-28T01:43:53.000Z,86.08
2023-12-28T01:46:24.219Z,86.44
2023-12-28T01:48:54.667Z,86.34
2023-12-28T01:51:26.279Z,86.33
2023-12-28T01:53:56.580Z,87.52
2023-12-28T01:56:28.360Z,87.28
2023-12-28T01:58:58.497Z,87.28
2023-12-28T02:01:29.074Z,87.68
2023-12-28T02:03:59.578Z,87.56
2023-12-28T02:06:30.160Z,87.53
2023-12-28T02:09:00.048Z,88.44
2023-12-28T02:11:30.054Z,88.66
2023-12-28T02:14:00.017Z,87.87
2023-12-28T02:16:38.459Z,87.41
2023-12-28T02:19:11.405Z,87.30
2023-12-28T02:21:42.149Z,87.83
2023-12-28T02:24:12.883Z,88.51
2023-12-28T02:26:42.968Z,88.07
2023-12-28T02:29:12.974Z,89.43
2023-12-28T02:31:48.812Z,88.64
2023-12-28T02:34:21.824Z,88.38
2023-12-28T02:36:52.301Z,89.03
2023-12-28T02:39:24.520Z,88.63
2023-12-28T02:41:56.217Z,88.63
2023-12-28T02:44:26.157Z,89.55
2023-12-28T02:46:56.030Z,88.84
2023-12-28T02:49:25.999Z,88.50
2023-12-28T02:51:55.705Z,89.81
2023-12-28T02:54:25.322Z,89.84
2023-12-28T02:56:55.147Z,90.22
2023-12-28T02:59:25.757Z,90.00
2023-12-28T03:01:55.625Z,89.43
2023-12-28T03:04:25.512Z,88.87
2023-12-28T03:06:55.416Z,89.28
2023-12-28T03:09:26.001Z,87.28
2023-12-28T03:11:55.964Z,88.32
2023-12-28T03:14:25.767Z,89.68
2023-12-28T03:16:55.628Z,86.87
2023-12-28T03:19:25.651Z,88.56
2023-12-28T03:21:55.678Z,89.18
2023-12-28T03:24:25.652Z,89.15
2023-12-28T03:26:55.874Z,87.73
2023-12-28T03:29:26.558Z,88.18
2023-12-28T03:31:56.390Z,89.28
2023-12-28T03:34:27.604Z,88.29
2023-12-28T03:37:01.246Z,89.26
2023-12-28T03:39:31.167Z,88.25
2023-12-28T03:42:01.063Z,87.43
2023-12-28T03:44:31.210Z,88.93
2023-12-28T03:47:01.421Z,89.03
2023-12-28T03:49:31.482Z,87.65
2023-12-28T03:52:01.470Z,87.78
2023-12-28T03:54:32.066Z,86.67
2023-12-28T03:57:01.944Z,87.37
2023-12-28T03:59:31.837Z,87.99
2023-12-28T04:02:01.732Z,86.81
2023-12-28T04:04:32.030Z,87.00
2023-12-28T04:07:01.725Z,87.91
2023-12-28T04:09:31.962Z,86.04
2023-12-28T04:12:01.813Z,85.47
2023-12-28T04:14:32.225Z,85.85
2023-12-28T04:17:02.149Z,86.00
2023-12-28T04:19:33.349Z,86.16
2023-12-28T04:22:03.245Z,86.10
2023-12-28T04:24:34.113Z,85.54
2023-12-28T04:27:04.056Z,85.75
2023-12-28T04:29:33.885Z,84.88
2023-12-28T04:32:05.091Z,84.50
2023-12-28T04:34:34.997Z,84.09
2023-12-28T04:37:05.151Z,83.88
2023-12-28T04:39:35.053Z,83.59
2023-12-28T04:42:06.680Z,83.99
2023-12-28T04:44:40.826Z,83.99
2023-12-28T04:47:10.720Z,82.79
2023-12-28T04:49:40.597Z,83.60
2023-12-28T04:52:11.588Z,83.57
2023-12-28T04:54:44.306Z,82.48
2023-12-28T04:57:14.416Z,82.35
2023-12-28T04:59:44.869Z,82.48
2023-12-28T05:02:14.928Z,81.86
2023-12-28T05:04:45.104Z,82.38
2023-12-28T05:07:15.406Z,82.14
2023-12-28T05:09:45.508Z,81.84
2023-12-28T05:12:15.656Z,81.45
2023-12-28T05:14:45.599Z,81.64
2023-12-28T05:17:15.775Z,81.29
2023-12-28T05:19:45.890Z,81.21
2023-12-28T05:22:15.874Z,80.04
2023-12-28T05:24:45.807Z,80.72
2023-12-28T05:27:15.730Z,80.47
2023-12-28T05:29:46.122Z,79.55
2023-12-28T05:32:15.939Z,80.40
2023-12-28T05:34:46.155Z,78.96
2023-12-28T05:37:16.330Z,78.82
2023-12-28T05:39:46.575Z,78.46
2023-12-28T05:42:16.519Z,78.46
2023-12-28T05:44:46.435Z,78.60
2023-12-28T05:47:16.289Z,78.90
2023-12-28T05:49:46.428Z,77.99
2023-12-28T05:52:18.282Z,77.95
2023-12-28T05:54:49.488Z,78.08
2023-12-28T05:57:19.917Z,78.00
2023-12-28T05:59:49.958Z,77.46
2023-12-28T06:02:19.498Z,78.49
2023-12-28T06:04:49.482Z,77.31
2023-12-28T06:07:19.383Z,78.48
2023-12-28T06:09:49.788Z,78.19
2023-12-28T06:12:19.446Z,77.34
2023-12-28T06:14:49.356Z,77.37
2023-12-28T06:17:19.804Z,77.04
2023-12-28T06:19:51.216Z,77.63
2023-12-28T06:22:21.223Z,77.44
2023-12-28T06:24:50.895Z,77.34
2023-12-28T06:27:20.765Z,77.64
2023-12-28T06:29:50.594Z,77.06
2023-12-28T06:32:22.283Z,76.49
2023-12-28T06:34:52.113Z,76.42
2023-12-28T06:37:22.172Z,76.57
2023-12-28T06:39:52.086Z,76.46
2023-12-28T06:42:22.037Z,76.70
2023-12-28T06:44:51.891Z,76.66
2023-12-28T06:47:21.792Z,76.77
2023-12-28T06:49:51.838Z,76.43
2023-12-28T06:52:21.750Z,76.89
2023-12-28T06:54:54.363Z,76.08
2023-12-28T06:57:24.279Z,75.53
2023-12-28T06:59:55.355Z,75.53
2023-12-28T07:02:25.200Z,75.87
2023-12-28T07:04:55.009Z,76.39
2023-12-28T07:07:25.153Z,76.68
2023-12-28T07:09:55.126Z,75.98
2023-12-28T07:12:25.107Z,76.49
2023-12-28T07:14:54.982Z,75.63
2023-12-28T07:17:24.860Z,76.27
2023-12-28T07:19:55.381Z,75.71
2023-12-28T07:22:25.109Z,76.54
2023-12-28T07:24:55.642Z,75.78
2023-12-28T07:27:25.591Z,76.00
2023-12-28T07:29:55.885Z,75.23
2023-12-28T07:32:27.357Z,74.95
2023-12-28T07:34:57.379Z,75.16
2023-12-28T07:37:27.238Z,75.01
2023-12-28T07:39:57.802Z,75.88
2023-12-28T07:42:27.396Z,75.38
2023-12-28T07:44:57.226Z,75.45
2023-12-28T07:47:28.095Z,75.41
2023-12-28T07:49:58.280Z,75.55
2023-12-28T07:52:28.259Z,74.51
2023-12-28T07:54:57.993Z,74.76
2023-12-28T07:57:28.277Z,75.65
2023-12-28T07:59:58.408Z,75.11
2023-12-28T08:02:28.817Z,74.90
2023-12-28T08:04:58.688Z,76.24
2023-12-28T08:07:28.590Z,75.72
2023-12-28T08:09:58.687Z,75.77
2023-12-28T08:12:29.457Z,75.79
2023-12-28T08:15:01.366Z,75.79
2023-12-28T08:17:31.312Z,76.20
2023-12-28T08:20:01.204Z,76.14
2023-12-28T08:22:32.214Z,76.17
2023-12-28T08:25:02.264Z,75.26
2023-12-28T08:27:32.614Z,75.79
2023-12-28T08:30:03.023Z,75.43
2023-12-28T08:32:33.319Z,75.43
2023-12-28T08:35:03.839Z,76.55
2023-12-28T08:37:34.795Z,76.07
2023-12-28T08:40:07.336Z,76.73
2023-12-28T08:42:37.511Z,76.69
2023-12-28T08:45:08.725Z,76.27
2023-12-28T08:47:38.962Z,76.14
2023-12-28T08:50:11.584Z,75.17
2023-12-28T08:52:41.478Z,75.48
2023-12-28T08:55:11.484Z,76.27
2023-12-28T08:57:43.254Z,75.71
2023-12-28T09:00:16.178Z,74.92
2023-12-28T09:02:46.304Z,74.77
2023-12-28T09:05:15.864Z,74.77
2023-12-28T09:07:45.983Z,75.80
2023-12-28T09:10:15.904Z,76.09
2023-12-28T09:12:45.793Z,75.94
2023-12-28T09:15:15.343Z,74.79
2023-12-28T09:17:45.356Z,75.39
2023-12-28T09:20:15.339Z,74.50
2023-12-28T09:22:45.215Z,74.26
2023-12-28T09:25:15.115Z,75.08
2023-12-28T09:27:45.026Z,74.84
2023-12-28T09:30:16.343Z,75.63
2023-12-28T09:32:46.345Z,74.63
2023-12-28T09:35:16.041Z,74.96
2023-12-28T09:37:47.041Z,74.69
2023-12-28T09:40:17.266Z,75.29
2023-12-28T09:42:53.132Z,75.46
2023-12-28T09:45:23.056Z,75.54
2023-12-28T09:47:53.979Z,75.03
2023-12-28T09:50:25.654Z,74.07
2023-12-28T09:52:55.882Z,74.11
2023-12-28T09:55:26.525Z,73.58
2023-12-28T09:57:59.694Z,73.36
2023-12-28T10:00:29.814Z,73.30
2023-12-28T10:03:00.241Z,72.60
2023-12-28T10:05:30.360Z,71.53
2023-12-28T10:08:00.898Z,71.50
2023-12-28T10:10:31.742Z,71.77
2023-12-28T10:13:03.698Z,71.14
2023-12-28T10:15:34.327Z,71.22
2023-12-28T10:18:08.318Z,71.66
2023-12-28T10:20:40.329Z,72.23
2023-12-28T10:23:11.160Z,72.23
2023-12-28T10:25:41.374Z,71.12
2023-12-28T10:28:13.748Z,70.88
2023-12-28T10:30:43.824Z,71.01
2023-12-28T10:33:17.077Z,70.85
2023-12-28T10:35:47.787Z,70.80
2023-12-28T10:38:19.048Z,71.87
2023-12-28T10:40:50.474Z,71.86
2023-12-28T10:43:23.946Z,71.86
2023-12-28T10:45:55.655Z,71.96
2023-12-28T10:48:32.020Z,72.39
2023-12-28T10:51:04.835Z,71.67
2023-12-28T10:53:47.963Z,71.61
2023-12-28T10:56:35.928Z,70.80
2023-12-28T10:59:21.100Z,70.20
2023-12-28T11:01:53.533Z,69.55
2023-12-28T11:04:34.819Z,69.94
2023-12-28T11:07:06.756Z,69.72
2023-12-28T11:09:38.200Z,69.48
2023-12-28T11:12:11.399Z,70.15
2023-12-28T11:14:42.864Z,68.71
2023-12-28T11:17:13.017Z,69.50
2023-12-28T11:19:44.142Z,68.70
2023-12-28T11:22:14.863Z,68.59
2023-12-28T11:24:44.825Z,68.72
2023-12-28T11:27:14.634Z,69.38
2023-12-28T11:29:46.142Z,69.70
2023-12-28T11:32:16.223Z,69.84
2023-12-28T11:34:46.364Z,69.84
2023-12-28T11:37:20.847Z,69.82
2023-12-28T11:39:51.768Z,69.37
2023-12-28T11:42:24.252Z,69.79
2023-12-28T11:44:57.996Z,69.79
2023-12-28T11:47:31.548Z,69.53
2023-12-28T11:50:11.703Z,69.99
2023-12-28T11:52:43.401Z,69.65
2023-12-28T11:55:12.971Z,70.07
2023-12-28T11:57:43.020Z,69.78
2023-12-28T12:00:15.512Z,70.38
2023-12-28T12:02:48.141Z,70.04
2023-12-28T12:05:19.695Z,70.06
2023-12-28T12:07:51.631Z,70.17
2023-12-28T12:10:22.571Z,68.75
2023-12-28T12:12:54.684Z,69.90
2023-12-28T12:15:24.403Z,69.71
2023-12-28T12:17:54.586Z,69.53
2023-12-28T12:20:24.510Z,69.80
2023-12-28T12:22:54.638Z,69.80
2023-12-28T12:25:24.587Z,69.52
2023-12-28T12:27:54.716Z,70.40
2023-12-28T12:30:24.781Z,69.27
2023-12-28T12:32:54.898Z,70.74
2023-12-28T12:35:25.358Z,70.72
2023-12-28T12:37:55.320Z,70.30
2023-12-28T12:40:25.710Z,70.86
2023-12-28T12:43:00.463Z,70.32
2023-12-28T12:45:30.585Z,71.20
2023-12-28T12:48:00.971Z,71.37
2023-12-28T12:50:31.269Z,71.00
2023-12-28T12:53:05.813Z,71.62
2023-12-28T12:55:36.053Z,71.62
2023-12-28T12:58:08.663Z,70.92
2023-12-28T13:00:39.029Z,70.92
2023-12-28T13:03:11.815Z,70.06
2023-12-28T13:05:43.348Z,69.76
2023-12-28T13:08:13.544Z,69.98
2023-12-28T13:10:43.824Z,70.93
2023-12-28T13:13:14.766Z,70.88
2023-12-28T13:15:44.852Z,70.11
2023-12-28T13:18:14.770Z,70.63
2023-12-28T13:20:45.603Z,70.07
2023-12-28T13:23:15.490Z,70.77
2023-12-28T13:25:45.603Z,70.37
2023-12-28T13:28:15.287Z,70.65
2023-12-28T13:30:45.181Z,70.36
2023-12-28T13:33:15.195Z,70.44
2023-12-28T13:35:45.146Z,70.58
2023-12-28T13:38:14.767Z,70.11
2023-12-28T13:40:44.858Z,70.40
2023-12-28T13:43:14.919Z,70.41
2023-12-28T13:45:44.562Z,70.54
2023-12-28T13:48:14.632Z,69.92
2023-12-28T13:50:45.031Z,69.85
2023-12-28T13:53:15.313Z,70.89
2023-12-28T13:55:45.394Z,70.88
2023-12-28T13:58:15.319Z,70.59
2023-12-28T14:00:45.368Z,70.77
2023-12-28T14:03:15.442Z,70.53
2023-12-28T14:05:45.503Z,70.29
2023-12-28T14:08:15.518Z,70.87
2023-12-28T14:10:45.371Z,70.26
2023-12-28T14:13:15.514Z,71.12
2023-12-28T14:15:45.428Z,71.53
2023-12-28T14:18:15.819Z,70.18
2023-12-28T14:20:45.734Z,71.18
2023-12-28T14:23:16.017Z,71.64
2023-12-28T14:25:48.059Z,71.87
2023-12-28T14:28:18.291Z,71.13
2023-12-28T14:30:48.834Z,71.15
2023-12-28T14:33:19.085Z,71.15
2023-12-28T14:35:50.027Z,72.11
2023-12-28T14:38:19.924Z,71.76
2023-12-28T14:40:51.409Z,71.76
2023-12-28T14:43:21.754Z,72.64
2023-12-28T14:45:53.095Z,72.40
2023-12-28T14:48:23.097Z,72.42
2023-12-28T14:50:53.002Z,72.74
2023-12-28T14:53:24.517Z,72.16
2023-12-28T14:55:57.145Z,72.46
2023-12-28T14:58:27.414Z,71.63
2023-12-28T15:00:57.661Z,71.74
2023-12-28T15:03:27.627Z,72.41
2023-12-28T15:05:57.653Z,72.22
2023-12-28T15:08:27.526Z,72.22
2023-12-28T15:10:57.499Z,72.32
2023-12-28T15:13:28.296Z,71.90
2023-12-28T15:15:58.603Z,71.35
2023-12-28T15:18:28.858Z,71.99
2023-12-28T15:20:59.214Z,71.93
2023-12-28T15:23:30.199Z,71.22
2023-12-28T15:26:00.204Z,70.88
2023-12-28T15:30:59.920Z,72.39
2023-12-28T15:33:29.945Z,71.71
2023-12-28T15:35:59.821Z,71.71
2023-12-28T15:38:30.122Z,71.47
2023-12-28T15:41:00.022Z,71.24
2023-12-28T15:43:30.038Z,70.71
2023-12-28T15:46:00.343Z,70.85
2023-12-28T15:48:30.347Z,70.85
2023-12-28T15:51:00.615Z,70.99
2023-12-28T15:53:30.467Z,71.20
2023-12-28T15:56:09.148Z,72.26
2023-12-28T15:58:31.798Z,70.82
2023-12-28T16:01:01.750Z,71.41
2023-12-28T16:03:31.702Z,70.95
2023-12-28T16:06:01.592Z,70.89
2023-12-28T16:08:31.474Z,71.48
2023-12-28T16:11:02.868Z,71.42
2023-12-28T16:13:33.054Z,71.81
2023-12-28T16:16:03.676Z,70.86
2023-12-28T16:18:34.370Z,71.49
2023-12-28T16:21:04.721Z,71.58
2023-12-28T16:23:34.784Z,71.04
2023-12-28T16:26:07.922Z,70.91
2023-12-28T16:28:38.051Z,71.64
2023-12-28T16:31:08.002Z,71.12
2023-12-28T16:33:38.011Z,70.82
2023-12-28T16:36:09.961Z,70.71
2023-12-28T16:38:40.005Z,71.45
2023-12-28T16:41:10.208Z,71.91
2023-12-28T16:43:41.724Z,71.36
2023-12-28T16:46:11.931Z,71.90
2023-12-28T16:48:41.865Z,71.67
2023-12-28T16:51:12.387Z,72.56
2023-12-28T16:53:42.279Z,71.55
2023-12-28T16:56:13.484Z,71.61
2023-12-28T16:58:43.329Z,71.82
2023-12-28T17:01:13.604Z,72.15
2023-12-28T17:03:43.562Z,71.91
2023-12-28T17:06:13.733Z,72.58
2023-12-28T17:08:43.711Z,72.04
2023-12-28T17:11:20.892Z,72.88
2023-12-28T17:13:52.539Z,72.88
2023-12-28T17:16:22.652Z,72.01
2023-12-28T17:18:52.944Z,72.49
2023-12-28T17:21:29.142Z,71.74
2023-12-28T17:24:00.222Z,71.94
2023-12-28T17:26:32.836Z,71.92
2023-12-28T17:29:07.945Z,71.77
2023-12-28T17:31:39.557Z,72.19
2023-12-28T17:34:11.908Z,72.57
2023-12-28T17:36:42.817Z,72.38
2023-12-28T17:39:13.366Z,71.73
2023-12-28T17:41:44.879Z,71.95
2023-12-28T17:44:22.610Z,72.02
2023-12-28T17:46:54.756Z,71.46
2023-12-28T17:49:32.393Z,71.46
2023-12-28T17:52:03.445Z,71.61
2023-12-28T17:54:33.438Z,71.84
2023-12-28T17:57:03.301Z,72.07
2023-12-28T17:59:33.479Z,72.10
2023-12-28T18:02:03.576Z,71.37
2023-12-28T18:04:33.838Z,72.11
2023-12-28T18:07:03.782Z,71.73
2023-12-28T18:09:35.295Z,71.45
2023-12-28T18:12:07.626Z,72.08
2023-12-28T18:14:38.612Z,72.16
2023-12-28T18:17:08.522Z,71.74
2023-12-28T18:19:39.853Z,72.94
2023-12-28T18:22:11.562Z,72.94
2023-12-28T18:24:41.453Z,73.06
2023-12-28T18:27:11.480Z,71.56
2023-12-28T18:29:41.487Z,72.34
2023-12-28T18:32:13.130Z,71.96
2023-12-28T18:34:47.563Z,72.42
2023-12-28T18:37:19.052Z,72.61
2023-12-28T18:39:48.994Z,71.62
2023-12-28T18:42:18.954Z,71.65
2023-12-28T18:44:48.859Z,71.58
2023-12-28T18:47:18.726Z,71.19
2023-12-28T18:49:50.240Z,71.65
2023-12-28T18:52:19.846Z,71.94
2023-12-28T18:54:50.017Z,71.78
2023-12-28T18:57:21.559Z,71.63
2023-12-28T18:59:51.947Z,70.89
2023-12-28T19:02:25.052Z,71.42
2023-12-28T19:04:55.156Z,71.55
2023-12-28T19:07:25.146Z,71.03
2023-12-28T19:09:55.013Z,71.98
2023-12-28T19:12:24.678Z,71.29
2023-12-28T19:14:56.209Z,71.29
2023-12-28T19:17:26.090Z,70.74
2023-12-28T19:19:56.122Z,70.97
2023-12-28T19:22:27.217Z,70.84
2023-12-28T19:24:57.388Z,70.75
2023-12-28T19:27:27.756Z,71.02
2023-12-28T19:29:58.687Z,71.02
2023-12-28T19:32:29.307Z,70.99
2023-12-28T19:35:00.885Z,70.42
2023-12-28T19:37:30.776Z,70.47
2023-12-28T19:40:01.339Z,70.47
2023-12-28T19:42:31.528Z,70.55
2023-12-28T19:45:01.416Z,70.43
2023-12-28T19:47:31.333Z,71.22
2023-12-28T19:50:01.294Z,70.47
2023-12-28T19:52:31.183Z,70.79
2023-12-28T19:55:01.158Z,70.37
2023-12-28T19:57:31.228Z,70.42
2023-12-28T20:00:01.467Z,70.81
2023-12-28T20:02:33.077Z,70.36
2023-12-28T20:05:03.460Z,71.11
2023-12-28T20:07:33.295Z,70.47
2023-12-28T20:10:04.464Z,70.20
2023-12-28T20:12:34.510Z,70.83
2023-12-28T20:15:06.329Z,71.10
2023-12-28T20:17:36.240Z,71.09
2023-12-28T20:20:10.175Z,70.78
2023-12-28T20:22:40.227Z,71.50
2023-12-28T20:25:11.361Z,71.91
2023-12-28T20:27:41.333Z,71.74
2023-12-28T20:30:13.878Z,72.04
2023-12-28T20:32:44.081Z,72.08
2023-12-28T20:35:13.901Z,71.89
2023-12-28T20:37:43.745Z,71.96
2023-12-28T20:40:15.629Z,72.22
2023-12-28T20:42:45.575Z,72.55
2023-12-28T20:45:15.191Z,72.57
2023-12-28T20:47:45.080Z,72.56
2023-12-28T20:50:16.488Z,72.57
2023-12-28T20:52:46.410Z,72.78
2023-12-28T20:55:16.087Z,72.75
2023-12-28T20:57:46.000Z,73.70
2023-12-28T21:00:16.157Z,73.70
2023-12-28T21:02:45.672Z,73.38
2023-12-28T21:05:15.558Z,73.64
2023-12-28T21:07:45.626Z,72.79
2023-12-28T21:10:15.606Z,72.80
2023-12-28T21:12:47.532Z,73.70
2023-12-28T21:15:17.309Z,73.71
2023-12-28T21:17:47.327Z,73.96
2023-12-28T21:20:17.309Z,73.69
2023-12-28T21:22:47.243Z,73.79
2023-12-28T21:25:17.273Z,73.99
2023-12-28T21:27:46.900Z,74.11
2023-12-28T21:30:16.938Z,74.18
2023-12-28T21:32:46.956Z,73.48
2023-12-28T21:35:16.646Z,73.10
2023-12-28T21:37:46.492Z,73.73
2023-12-28T21:40:17.637Z,73.71
2023-12-28T21:42:47.882Z,73.87
2023-12-28T21:45:17.435Z,74.03
2023-12-28T21:47:48.051Z,73.72
2023-12-28T21:50:18.432Z,74.54
2023-12-28T21:52:48.851Z,74.40
2023-12-28T21:55:18.714Z,74.19
2023-12-28T21:57:49.069Z,74.35
2023-12-28T22:00:19.355Z,74.69
2023-12-28T22:02:49.010Z,74.41
2023-12-28T22:05:18.943Z,74.11
2023-12-28T22:07:49.189Z,74.57
2023-12-28T22:10:19.114Z,74.15
2023-12-28T22:12:49.984Z,74.24
2023-12-28T22:15:19.588Z,74.25
2023-12-28T22:17:49.815Z,74.22
2023-12-28T22:20:20.534Z,74.22
2023-12-28T22:22:50.392Z,73.57
2023-12-28T22:25:20.781Z,73.84
2023-12-28T22:27:50.671Z,74.33
2023-12-28T22:30:20.299Z,74.59
2023-12-28T22:32:50.301Z,73.49
2023-12-28T22:35:20.063Z,74.44
2023-12-28T22:37:50.231Z,73.57
2023-12-28T22:40:20.077Z,73.57
2023-12-28T22:42:49.920Z,74.27
2023-12-28T22:45:19.584Z,74.44
2023-12-28T22:47:49.843Z,73.75
2023-12-28T22:50:19.967Z,73.23
2023-12-28T22:52:50.229Z,73.52
2023-12-28T22:55:20.183Z,73.79
2023-12-28T22:57:50.175Z,74.14
2023-12-28T23:00:22.090Z,72.49
2023-12-28T23:02:52.298Z,72.30
2023-12-28T23:05:22.625Z,73.13
2023-12-28T23:07:52.502Z,72.76
2023-12-28T23:10:22.045Z,72.54
2023-12-28T23:12:52.232Z,73.92
2023-12-28T23:15:22.587Z,73.70
2023-12-28T23:17:55.012Z,73.75
2023-12-28T23:20:23.540Z,75.79
2023-12-28T23:22:53.630Z,76.30
2023-12-28T23:25:23.532Z,76.06
2023-12-28T23:27:53.404Z,76.36
2023-12-28T23:30:23.046Z,77.47
2023-12-28T23:32:53.319Z,78.17
2023-12-28T23:35:23.236Z,77.36
2023-12-28T23:37:53.062Z,77.39
2023-12-28T23:40:22.894Z,76.92
2023-12-28T23:42:52.823Z,76.96
2023-12-28T23:45:22.672Z,76.40
2023-12-28T23:47:52.949Z,75.59
2023-12-28T23:50:23.158Z,75.86
2023-12-28T23:52:52.982Z,75.52
2023-12-28T23:55:22.868Z,75.61
2023-12-28T23:57:52.762Z,75.18
